<?xml version="1.0" encoding="UTF-8" standalone="no" ?>
<gpx xmlns="http://www.topografix.com/GPX/1/1" xmlns:xsi="http://www.w3.org/2001/XMLSchema-instance" xsi:schemaLocation="http://www.topografix.com/GPX/1/1 http://www.topografix.com/GPX/1/1/gpx.xsd" version="1.1" creator="VisuGPX - https://www.visugpx.com">
  <metadata>
    <name>Sermizelles Voutenay 15km</name>
    <desc><![CDATA[Sermizelles Voutenay
Dist 14.5km.   Dev + 380m]]></desc>
  </metadata>
  <trk>
    <name><![CDATA[12954019-Sermizelles Voutenay 15km]]></name>
    <extensions>
      <line xmlns="http://www.topografix.com/GPX/gpx_style/0/2">
        <color>0000FF</color>
        <width>4</width>
      </line>
    </extensions>
    <trkseg>
      <trkpt lat="47.5351" lon="3.79473">
        <ele>137</ele>
        <time>2021-04-28T14:55:01Z</time>
      </trkpt>
      <trkpt lat="47.53476" lon="3.79497">
        <ele>138</ele>
        <time>2021-04-28T14:55:51Z</time>
      </trkpt>
      <trkpt lat="47.53621" lon="3.79557">
        <ele>162</ele>
        <time>2021-04-28T14:59:12Z</time>
      </trkpt>
      <trkpt lat="47.5367" lon="3.79573">
        <ele>171</ele>
        <time>2021-04-28T15:00:19Z</time>
      </trkpt>
      <trkpt lat="47.53641" lon="3.79608">
        <ele>181</ele>
        <time>2021-04-28T15:01:09Z</time>
      </trkpt>
      <trkpt lat="47.53667" lon="3.79607">
        <ele>183</ele>
        <time>2021-04-28T15:01:44Z</time>
      </trkpt>
      <trkpt lat="47.53648" lon="3.79641">
        <ele>193</ele>
        <time>2021-04-28T15:02:24Z</time>
      </trkpt>
      <trkpt lat="47.53669" lon="3.79658">
        <ele>202</ele>
        <time>2021-04-28T15:02:55Z</time>
      </trkpt>
      <trkpt lat="47.53649" lon="3.79682">
        <ele>207</ele>
        <time>2021-04-28T15:03:30Z</time>
      </trkpt>
      <trkpt lat="47.53667" lon="3.79698">
        <ele>214</ele>
        <time>2021-04-28T15:03:58Z</time>
      </trkpt>
      <trkpt lat="47.53671" lon="3.79713">
        <ele>219</ele>
        <time>2021-04-28T15:04:12Z</time>
      </trkpt>
      <trkpt lat="47.53688" lon="3.79767">
        <ele>231</ele>
        <time>2021-04-28T15:05:06Z</time>
      </trkpt>
      <trkpt lat="47.53719" lon="3.79825">
        <ele>233</ele>
        <time>2021-04-28T15:06:13Z</time>
      </trkpt>
      <trkpt lat="47.53756" lon="3.79877">
        <ele>231</ele>
        <time>2021-04-28T15:07:21Z</time>
      </trkpt>
      <trkpt lat="47.53805" lon="3.79901">
        <ele>229</ele>
        <time>2021-04-28T15:08:30Z</time>
      </trkpt>
      <trkpt lat="47.53836" lon="3.79975">
        <ele>226</ele>
        <time>2021-04-28T15:09:48Z</time>
      </trkpt>
      <trkpt lat="47.53855" lon="3.80021">
        <ele>222</ele>
        <time>2021-04-28T15:10:37Z</time>
      </trkpt>
      <trkpt lat="47.53864" lon="3.80095">
        <ele>217</ele>
        <time>2021-04-28T15:11:44Z</time>
      </trkpt>
      <trkpt lat="47.53884" lon="3.80203">
        <ele>212</ele>
        <time>2021-04-28T15:13:25Z</time>
      </trkpt>
      <trkpt lat="47.53937" lon="3.80233">
        <ele>212</ele>
        <time>2021-04-28T15:14:41Z</time>
      </trkpt>
      <trkpt lat="47.53997" lon="3.80312">
        <ele>214</ele>
        <time>2021-04-28T15:16:28Z</time>
      </trkpt>
      <trkpt lat="47.54031" lon="3.80397">
        <ele>216</ele>
        <time>2021-04-28T15:17:57Z</time>
      </trkpt>
      <trkpt lat="47.54069" lon="3.8047">
        <ele>220</ele>
        <time>2021-04-28T15:19:20Z</time>
      </trkpt>
      <trkpt lat="47.54069" lon="3.8077">
        <ele>221</ele>
        <time>2021-04-28T15:23:50Z</time>
      </trkpt>
      <trkpt lat="47.54027" lon="3.8088">
        <ele>223</ele>
        <time>2021-04-28T15:25:44Z</time>
      </trkpt>
      <trkpt lat="47.54132" lon="3.80894">
        <ele>223</ele>
        <time>2021-04-28T15:28:05Z</time>
      </trkpt>
      <trkpt lat="47.54215" lon="3.80942">
        <ele>218</ele>
        <time>2021-04-28T15:30:04Z</time>
      </trkpt>
      <trkpt lat="47.54286" lon="3.81063">
        <ele>212</ele>
        <time>2021-04-28T15:32:28Z</time>
      </trkpt>
      <trkpt lat="47.5446" lon="3.81073">
        <ele>193</ele>
        <time>2021-04-28T15:36:21Z</time>
      </trkpt>
      <trkpt lat="47.54615" lon="3.81133">
        <ele>178</ele>
        <time>2021-04-28T15:39:54Z</time>
      </trkpt>
      <trkpt lat="47.54657" lon="3.812">
        <ele>172</ele>
        <time>2021-04-28T15:41:17Z</time>
      </trkpt>
      <trkpt lat="47.54709" lon="3.81249">
        <ele>167</ele>
        <time>2021-04-28T15:42:39Z</time>
      </trkpt>
      <trkpt lat="47.54744" lon="3.81324">
        <ele>166</ele>
        <time>2021-04-28T15:44:01Z</time>
      </trkpt>
      <trkpt lat="47.54755" lon="3.81382">
        <ele>169</ele>
        <time>2021-04-28T15:44:55Z</time>
      </trkpt>
      <trkpt lat="47.54747" lon="3.81449">
        <ele>171</ele>
        <time>2021-04-28T15:45:57Z</time>
      </trkpt>
      <trkpt lat="47.54683" lon="3.81535">
        <ele>178</ele>
        <time>2021-04-28T15:47:52Z</time>
      </trkpt>
      <trkpt lat="47.546" lon="3.81597">
        <ele>189</ele>
        <time>2021-04-28T15:49:56Z</time>
      </trkpt>
      <trkpt lat="47.54602" lon="3.81704">
        <ele>203</ele>
        <time>2021-04-28T15:51:32Z</time>
      </trkpt>
      <trkpt lat="47.54561" lon="3.81869">
        <ele>222</ele>
        <time>2021-04-28T15:54:11Z</time>
      </trkpt>
      <trkpt lat="47.54537" lon="3.81962">
        <ele>229</ele>
        <time>2021-04-28T15:55:41Z</time>
      </trkpt>
      <trkpt lat="47.54487" lon="3.82062">
        <ele>237</ele>
        <time>2021-04-28T15:57:33Z</time>
      </trkpt>
      <trkpt lat="47.54422" lon="3.8211">
        <ele>244</ele>
        <time>2021-04-28T15:59:10Z</time>
      </trkpt>
      <trkpt lat="47.54383" lon="3.82157">
        <ele>251</ele>
        <time>2021-04-28T16:00:17Z</time>
      </trkpt>
      <trkpt lat="47.54393" lon="3.82234">
        <ele>256</ele>
        <time>2021-04-28T16:01:27Z</time>
      </trkpt>
      <trkpt lat="47.54413" lon="3.82292">
        <ele>258</ele>
        <time>2021-04-28T16:02:26Z</time>
      </trkpt>
      <trkpt lat="47.54418" lon="3.82365">
        <ele>260</ele>
        <time>2021-04-28T16:03:32Z</time>
      </trkpt>
      <trkpt lat="47.54476" lon="3.82462">
        <ele>263</ele>
        <time>2021-04-28T16:05:29Z</time>
      </trkpt>
      <trkpt lat="47.54542" lon="3.82629">
        <ele>271</ele>
        <time>2021-04-28T16:08:23Z</time>
      </trkpt>
      <trkpt lat="47.54618" lon="3.82685">
        <ele>272</ele>
        <time>2021-04-28T16:10:16Z</time>
      </trkpt>
      <trkpt lat="47.54621" lon="3.82831">
        <ele>277</ele>
        <time>2021-04-28T16:12:28Z</time>
      </trkpt>
      <trkpt lat="47.54592" lon="3.82929">
        <ele>280</ele>
        <time>2021-04-28T16:14:04Z</time>
      </trkpt>
      <trkpt lat="47.54577" lon="3.83041">
        <ele>278</ele>
        <time>2021-04-28T16:15:47Z</time>
      </trkpt>
      <trkpt lat="47.54664" lon="3.83247">
        <ele>271</ele>
        <time>2021-04-28T16:19:26Z</time>
      </trkpt>
      <trkpt lat="47.54693" lon="3.83371">
        <ele>267</ele>
        <time>2021-04-28T16:21:24Z</time>
      </trkpt>
      <trkpt lat="47.54731" lon="3.83504">
        <ele>264</ele>
        <time>2021-04-28T16:23:34Z</time>
      </trkpt>
      <trkpt lat="47.5487" lon="3.83401">
        <ele>273</ele>
        <time>2021-04-28T16:27:02Z</time>
      </trkpt>
      <trkpt lat="47.55" lon="3.83337">
        <ele>270</ele>
        <time>2021-04-28T16:30:05Z</time>
      </trkpt>
      <trkpt lat="47.55051" lon="3.83223">
        <ele>265</ele>
        <time>2021-04-28T16:32:08Z</time>
      </trkpt>
      <trkpt lat="47.55049" lon="3.83067">
        <ele>259</ele>
        <time>2021-04-28T16:34:28Z</time>
      </trkpt>
      <trkpt lat="47.55118" lon="3.8287">
        <ele>253</ele>
        <time>2021-04-28T16:37:48Z</time>
      </trkpt>
      <trkpt lat="47.55134" lon="3.82868">
        <ele>253</ele>
        <time>2021-04-28T16:38:10Z</time>
      </trkpt>
      <trkpt lat="47.55166" lon="3.82717">
        <ele>251</ele>
        <time>2021-04-28T16:40:32Z</time>
      </trkpt>
      <trkpt lat="47.55242" lon="3.82559">
        <ele>248</ele>
        <time>2021-04-28T16:43:27Z</time>
      </trkpt>
      <trkpt lat="47.55285" lon="3.82477">
        <ele>245</ele>
        <time>2021-04-28T16:45:00Z</time>
      </trkpt>
      <trkpt lat="47.55375" lon="3.82373">
        <ele>240</ele>
        <time>2021-04-28T16:47:33Z</time>
      </trkpt>
      <trkpt lat="47.55461" lon="3.82298">
        <ele>242</ele>
        <time>2021-04-28T16:49:46Z</time>
      </trkpt>
      <trkpt lat="47.55615" lon="3.82349">
        <ele>236</ele>
        <time>2021-04-28T16:53:16Z</time>
      </trkpt>
      <trkpt lat="47.55758" lon="3.8237">
        <ele>226</ele>
        <time>2021-04-28T16:56:28Z</time>
      </trkpt>
      <trkpt lat="47.55851" lon="3.82302">
        <ele>222</ele>
        <time>2021-04-28T16:58:47Z</time>
      </trkpt>
      <trkpt lat="47.55839" lon="3.82157">
        <ele>220</ele>
        <time>2021-04-28T17:00:58Z</time>
      </trkpt>
      <trkpt lat="47.55822" lon="3.82064">
        <ele>217</ele>
        <time>2021-04-28T17:02:25Z</time>
      </trkpt>
      <trkpt lat="47.55843" lon="3.8193">
        <ele>214</ele>
        <time>2021-04-28T17:04:29Z</time>
      </trkpt>
      <trkpt lat="47.559" lon="3.81811">
        <ele>213</ele>
        <time>2021-04-28T17:06:40Z</time>
      </trkpt>
      <trkpt lat="47.55997" lon="3.81724">
        <ele>208</ele>
        <time>2021-04-28T17:09:12Z</time>
      </trkpt>
      <trkpt lat="47.56097" lon="3.81695">
        <ele>205</ele>
        <time>2021-04-28T17:11:28Z</time>
      </trkpt>
      <trkpt lat="47.56187" lon="3.81623">
        <ele>206</ele>
        <time>2021-04-28T17:13:44Z</time>
      </trkpt>
      <trkpt lat="47.56153" lon="3.81515">
        <ele>201</ele>
        <time>2021-04-28T17:15:31Z</time>
      </trkpt>
      <trkpt lat="47.56172" lon="3.814">
        <ele>200</ele>
        <time>2021-04-28T17:17:18Z</time>
      </trkpt>
      <trkpt lat="47.56262" lon="3.81324">
        <ele>195</ele>
        <time>2021-04-28T17:19:36Z</time>
      </trkpt>
      <trkpt lat="47.56352" lon="3.81298">
        <ele>193</ele>
        <time>2021-04-28T17:21:39Z</time>
      </trkpt>
      <trkpt lat="47.56328" lon="3.81169">
        <ele>190</ele>
        <time>2021-04-28T17:23:39Z</time>
      </trkpt>
      <trkpt lat="47.56335" lon="3.81064">
        <ele>189</ele>
        <time>2021-04-28T17:25:14Z</time>
      </trkpt>
      <trkpt lat="47.56367" lon="3.81024">
        <ele>192</ele>
        <time>2021-04-28T17:26:10Z</time>
      </trkpt>
      <trkpt lat="47.56382" lon="3.80902">
        <ele>187</ele>
        <time>2021-04-28T17:28:02Z</time>
      </trkpt>
      <trkpt lat="47.56282" lon="3.80826">
        <ele>182</ele>
        <time>2021-04-28T17:30:32Z</time>
      </trkpt>
      <trkpt lat="47.56219" lon="3.80732">
        <ele>182</ele>
        <time>2021-04-28T17:32:31Z</time>
      </trkpt>
      <trkpt lat="47.56165" lon="3.80584">
        <ele>176</ele>
        <time>2021-04-28T17:35:02Z</time>
      </trkpt>
      <trkpt lat="47.56145" lon="3.80411">
        <ele>180</ele>
        <time>2021-04-28T17:37:40Z</time>
      </trkpt>
      <trkpt lat="47.56114" lon="3.80277">
        <ele>179</ele>
        <time>2021-04-28T17:39:48Z</time>
      </trkpt>
      <trkpt lat="47.56145" lon="3.80075">
        <ele>172</ele>
        <time>2021-04-28T17:42:55Z</time>
      </trkpt>
      <trkpt lat="47.56131" lon="3.79963">
        <ele>170</ele>
        <time>2021-04-28T17:44:37Z</time>
      </trkpt>
      <trkpt lat="47.56033" lon="3.79826">
        <ele>170</ele>
        <time>2021-04-28T17:47:37Z</time>
      </trkpt>
      <trkpt lat="47.56014" lon="3.79729">
        <ele>167</ele>
        <time>2021-04-28T17:49:08Z</time>
      </trkpt>
      <trkpt lat="47.55953" lon="3.79472">
        <ele>148</ele>
        <time>2021-04-28T17:53:13Z</time>
      </trkpt>
      <trkpt lat="47.55938" lon="3.79602">
        <ele>163</ele>
        <time>2021-04-28T17:55:12Z</time>
      </trkpt>
      <trkpt lat="47.55919" lon="3.79585">
        <ele>161</ele>
        <time>2021-04-28T17:55:42Z</time>
      </trkpt>
      <trkpt lat="47.5589" lon="3.79604">
        <ele>161</ele>
        <time>2021-04-28T17:56:24Z</time>
      </trkpt>
      <trkpt lat="47.55847" lon="3.79676">
        <ele>170</ele>
        <time>2021-04-28T17:57:50Z</time>
      </trkpt>
      <trkpt lat="47.55809" lon="3.79752">
        <ele>178</ele>
        <time>2021-04-28T17:59:16Z</time>
      </trkpt>
      <trkpt lat="47.55767" lon="3.79829">
        <ele>183</ele>
        <time>2021-04-28T18:00:45Z</time>
      </trkpt>
      <trkpt lat="47.55727" lon="3.79905">
        <ele>192</ele>
        <time>2021-04-28T18:02:12Z</time>
      </trkpt>
      <trkpt lat="47.55652" lon="3.79968">
        <ele>193</ele>
        <time>2021-04-28T18:04:07Z</time>
      </trkpt>
      <trkpt lat="47.55489" lon="3.80084">
        <ele>197</ele>
        <time>2021-04-28T18:08:08Z</time>
      </trkpt>
      <trkpt lat="47.55394" lon="3.80204">
        <ele>204</ele>
        <time>2021-04-28T18:10:55Z</time>
      </trkpt>
      <trkpt lat="47.55298" lon="3.80432">
        <ele>234</ele>
        <time>2021-04-28T18:14:57Z</time>
      </trkpt>
      <trkpt lat="47.55287" lon="3.80569">
        <ele>247</ele>
        <time>2021-04-28T18:17:01Z</time>
      </trkpt>
      <trkpt lat="47.55293" lon="3.80672">
        <ele>254</ele>
        <time>2021-04-28T18:18:34Z</time>
      </trkpt>
      <trkpt lat="47.55321" lon="3.80896">
        <ele>265</ele>
        <time>2021-04-28T18:21:59Z</time>
      </trkpt>
      <trkpt lat="47.55365" lon="3.81234">
        <ele>263</ele>
        <time>2021-04-28T18:27:09Z</time>
      </trkpt>
      <trkpt lat="47.552" lon="3.8126">
        <ele>252</ele>
        <time>2021-04-28T18:30:51Z</time>
      </trkpt>
      <trkpt lat="47.55148" lon="3.81144">
        <ele>251</ele>
        <time>2021-04-28T18:32:56Z</time>
      </trkpt>
      <trkpt lat="47.55136" lon="3.80994">
        <ele>250</ele>
        <time>2021-04-28T18:35:12Z</time>
      </trkpt>
      <trkpt lat="47.55049" lon="3.80865">
        <ele>246</ele>
        <time>2021-04-28T18:37:56Z</time>
      </trkpt>
      <trkpt lat="47.54951" lon="3.80784">
        <ele>242</ele>
        <time>2021-04-28T18:40:26Z</time>
      </trkpt>
      <trkpt lat="47.54875" lon="3.80758">
        <ele>228</ele>
        <time>2021-04-28T18:42:10Z</time>
      </trkpt>
      <trkpt lat="47.54812" lon="3.80603">
        <ele>216</ele>
        <time>2021-04-28T18:44:53Z</time>
      </trkpt>
      <trkpt lat="47.54809" lon="3.80453">
        <ele>214</ele>
        <time>2021-04-28T18:47:08Z</time>
      </trkpt>
      <trkpt lat="47.54806" lon="3.80342">
        <ele>204</ele>
        <time>2021-04-28T18:48:48Z</time>
      </trkpt>
      <trkpt lat="47.5482" lon="3.80123">
        <ele>190</ele>
        <time>2021-04-28T18:52:06Z</time>
      </trkpt>
      <trkpt lat="47.54864" lon="3.79964">
        <ele>183</ele>
        <time>2021-04-28T18:54:41Z</time>
      </trkpt>
      <trkpt lat="47.54864" lon="3.79685">
        <ele>140</ele>
        <time>2021-04-28T18:58:53Z</time>
      </trkpt>
      <trkpt lat="47.54808" lon="3.79706">
        <ele>142</ele>
        <time>2021-04-28T19:00:10Z</time>
      </trkpt>
      <trkpt lat="47.54748" lon="3.79747">
        <ele>142</ele>
        <time>2021-04-28T19:01:38Z</time>
      </trkpt>
      <trkpt lat="47.547" lon="3.7975">
        <ele>147</ele>
        <time>2021-04-28T19:02:42Z</time>
      </trkpt>
      <trkpt lat="47.54617" lon="3.79829">
        <ele>161</ele>
        <time>2021-04-28T19:04:54Z</time>
      </trkpt>
      <trkpt lat="47.54567" lon="3.7989">
        <ele>170</ele>
        <time>2021-04-28T19:06:20Z</time>
      </trkpt>
      <trkpt lat="47.54541" lon="3.79954">
        <ele>176</ele>
        <time>2021-04-28T19:07:27Z</time>
      </trkpt>
      <trkpt lat="47.54519" lon="3.79895">
        <ele>177</ele>
        <time>2021-04-28T19:08:28Z</time>
      </trkpt>
      <trkpt lat="47.54533" lon="3.79862">
        <ele>173</ele>
        <time>2021-04-28T19:09:03Z</time>
      </trkpt>
      <trkpt lat="47.54514" lon="3.79854">
        <ele>174</ele>
        <time>2021-04-28T19:09:29Z</time>
      </trkpt>
      <trkpt lat="47.54474" lon="3.79839">
        <ele>175</ele>
        <time>2021-04-28T19:10:25Z</time>
      </trkpt>
      <trkpt lat="47.54443" lon="3.79796">
        <ele>172</ele>
        <time>2021-04-28T19:11:21Z</time>
      </trkpt>
      <trkpt lat="47.54436" lon="3.79456">
        <ele>146</ele>
        <time>2021-04-28T19:16:28Z</time>
      </trkpt>
      <trkpt lat="47.54403" lon="3.79426">
        <ele>142</ele>
        <time>2021-04-28T19:17:19Z</time>
      </trkpt>
      <trkpt lat="47.54364" lon="3.79446">
        <ele>146</ele>
        <time>2021-04-28T19:18:14Z</time>
      </trkpt>
      <trkpt lat="47.54329" lon="3.79494">
        <ele>157</ele>
        <time>2021-04-28T19:19:18Z</time>
      </trkpt>
      <trkpt lat="47.54188" lon="3.79474">
        <ele>167</ele>
        <time>2021-04-28T19:22:27Z</time>
      </trkpt>
      <trkpt lat="47.54129" lon="3.79489">
        <ele>175</ele>
        <time>2021-04-28T19:23:47Z</time>
      </trkpt>
      <trkpt lat="47.54062" lon="3.79522">
        <ele>184</ele>
        <time>2021-04-28T19:25:21Z</time>
      </trkpt>
      <trkpt lat="47.53959" lon="3.79528">
        <ele>184</ele>
        <time>2021-04-28T19:27:39Z</time>
      </trkpt>
      <trkpt lat="47.53849" lon="3.79517">
        <ele>170</ele>
        <time>2021-04-28T19:30:06Z</time>
      </trkpt>
      <trkpt lat="47.53756" lon="3.79543">
        <ele>168</ele>
        <time>2021-04-28T19:32:12Z</time>
      </trkpt>
      <trkpt lat="47.53707" lon="3.79543">
        <ele>163</ele>
        <time>2021-04-28T19:33:17Z</time>
      </trkpt>
      <trkpt lat="47.53657" lon="3.79554">
        <ele>163</ele>
        <time>2021-04-28T19:34:25Z</time>
      </trkpt>
      <trkpt lat="47.53489" lon="3.79489">
        <ele>138</ele>
        <time>2021-04-28T19:38:17Z</time>
      </trkpt>
    </trkseg>
  </trk>
</gpx>